Portada
METAR-TAF:

METAR-TAF

Aeropuertos :

Chulitna, Alaska, Estados Unidos

latitud: 62-53N, longitud: 149-50W, altitud: 381 m

Observación

El informe se hizo hace 43 minutos, a las 17:52 UTC
Viento 4 kt del norte
Temperatura -5°C
Humedad 79%
Presión 977 hPa
Visibilidad: 4.8 km
Cielo cubierto a una altura de 3000 ft
neblina

METAR: PAEC 301752Z 36004KT 3SM BR OVC030 M05/M08 A2886 RMK NOSPECI FIRST

Hora: 09:35 (18:35 UTC)


TAF: falta

Observaciones y pronósticos meteorológicos de más de 4000 aeropuertos (mensajes METAR y TAF).

Los puntos amarillos y rojos representan las estaciones disponibles.

Ponga el ratón en el punto deseado para ver el nombre de la estación.

Haga clic para ver las observaciones y los pronósticos meteorológicos.

Para cambiar el mapa : haga clic en los botones verdes con una cruz de color negro para hacer un zoom, en el botón verde con un guión para alejar o en las flechas verdes para mapas adyacentes.


METAR-TAF: